createdAt,value
2019-05-11T00:01:29.697Z,12.00
2019-05-11T00:03:58.137Z,12.00
2019-05-11T00:06:45.923Z,11.90
2019-05-11T00:09:14.399Z,11.90
2019-05-11T00:11:42.991Z,11.90
2019-05-11T00:14:11.461Z,11.80
2019-05-11T00:16:39.951Z,11.80
2019-05-11T00:19:08.445Z,11.80
2019-05-11T00:21:36.899Z,11.80
2019-05-11T00:24:05.336Z,11.80
2019-05-11T00:26:33.800Z,11.80
2019-05-11T00:29:02.260Z,11.70
2019-05-11T00:31:30.783Z,11.70
2019-05-11T00:33:59.203Z,11.70
2019-05-11T00:36:27.655Z,11.60
2019-05-11T00:38:56.100Z,11.60
2019-05-11T00:41:24.557Z,11.60
2019-05-11T00:43:52.992Z,11.60
2019-05-11T00:46:21.445Z,11.50
2019-05-11T00:48:50.187Z,11.50
2019-05-11T00:51:18.740Z,11.40
2019-05-11T00:53:47.297Z,11.40
2019-05-11T00:56:15.782Z,11.40
2019-05-11T00:58:44.222Z,11.40
2019-05-11T01:01:12.779Z,11.40
2019-05-11T01:03:41.344Z,11.40
2019-05-11T01:06:09.887Z,11.40
2019-05-11T01:08:38.421Z,11.40
2019-05-11T01:11:06.847Z,11.40
2019-05-11T01:13:54.639Z,11.30
2019-05-11T01:16:23.096Z,11.30
2019-05-11T01:19:10.900Z,11.20
2019-05-11T01:21:39.333Z,11.20
2019-05-11T01:24:07.797Z,11.20
2019-05-11T01:26:36.377Z,11.10
2019-05-11T01:29:04.831Z,11.10
2019-05-11T01:31:33.269Z,11.10
2019-05-11T01:34:01.752Z,11.10
2019-05-11T01:36:30.269Z,11.10
2019-05-11T01:38:58.723Z,11.10
2019-05-11T01:41:27.188Z,11.10
2019-05-11T01:43:55.655Z,11.00
2019-05-11T01:46:24.092Z,11.00
2019-05-11T01:48:52.589Z,11.00
2019-05-11T01:51:21.082Z,10.90
2019-05-11T01:53:49.607Z,10.90
2019-05-11T01:56:18.046Z,10.90
2019-05-11T01:58:46.495Z,10.90
2019-05-11T02:01:15.081Z,10.90
2019-05-11T02:03:43.577Z,10.90
2019-05-11T02:06:12.007Z,10.90
2019-05-11T02:08:40.475Z,10.80
2019-05-11T02:11:15.933Z,10.80
2019-05-11T02:13:39.065Z,10.80
2019-05-11T02:16:26.932Z,10.80
2019-05-11T02:18:55.370Z,10.80
2019-05-11T02:21:23.866Z,10.80
2019-05-11T02:23:52.420Z,10.80
2019-05-11T02:26:20.872Z,10.80
2019-05-11T02:28:49.332Z,10.80
2019-05-11T02:31:17.778Z,10.80
2019-05-11T02:33:46.208Z,10.80
2019-05-11T02:36:14.688Z,10.70
2019-05-11T02:38:43.260Z,10.80
2019-05-11T02:41:11.708Z,10.70
2019-05-11T02:43:40.451Z,10.70
2019-05-11T02:46:09.326Z,10.80
2019-05-11T02:48:37.778Z,10.80
2019-05-11T02:51:07.416Z,10.70
2019-05-11T02:53:37.089Z,10.70
2019-05-11T02:56:05.606Z,10.70
2019-05-11T02:58:34.046Z,10.70
2019-05-11T03:01:02.497Z,10.70
2019-05-11T03:03:30.949Z,10.60
2019-05-11T03:05:59.529Z,10.60
2019-05-11T03:08:28.004Z,10.60
2019-05-11T03:10:56.534Z,10.50
2019-05-11T03:13:25.117Z,10.40
2019-05-11T03:15:53.601Z,10.40
2019-05-11T03:18:22.040Z,10.30
2019-05-11T03:20:50.469Z,10.30
2019-05-11T03:23:19.012Z,10.30
2019-05-11T03:25:47.457Z,10.30
2019-05-11T03:28:15.938Z,10.30
2019-05-11T03:30:44.425Z,10.40
2019-05-11T03:33:12.893Z,10.40
2019-05-11T03:35:41.430Z,10.40
2019-05-11T03:38:09.931Z,10.40
2019-05-11T03:40:38.373Z,10.40
2019-05-11T03:43:06.993Z,10.50
2019-05-11T03:45:35.505Z,10.50
2019-05-11T03:48:04.083Z,10.50
2019-05-11T03:50:33.459Z,10.50
2019-05-11T03:53:01.929Z,10.50
2019-05-11T03:55:30.730Z,10.50
2019-05-11T03:57:59.174Z,10.50
2019-05-11T04:00:27.901Z,10.50
2019-05-11T04:02:56.432Z,10.50
2019-05-11T04:05:24.952Z,10.50
2019-05-11T04:07:53.446Z,10.50
2019-05-11T04:10:25.095Z,10.50
2019-05-11T04:12:52.070Z,10.50
2019-05-11T04:15:20.588Z,10.50
2019-05-11T04:17:49.024Z,10.60
2019-05-11T04:20:17.809Z,10.60
2019-05-11T04:22:46.247Z,10.60
2019-05-11T04:25:14.837Z,10.60
2019-05-11T04:27:43.281Z,10.60
2019-05-11T04:30:12.164Z,10.60
2019-05-11T04:32:40.600Z,10.70
2019-05-11T04:35:09.292Z,10.70
2019-05-11T04:37:57.072Z,10.70
2019-05-11T04:40:25.536Z,10.80
2019-05-11T04:42:55.929Z,10.80
2019-05-11T04:45:24.229Z,10.80
2019-05-11T04:47:52.677Z,10.80
2019-05-11T04:50:21.205Z,10.70
2019-05-11T04:52:49.642Z,10.80
2019-05-11T04:55:27.246Z,10.80
2019-05-11T04:57:55.703Z,10.80
2019-05-11T05:00:24.203Z,10.80
2019-05-11T05:02:52.652Z,10.70
2019-05-11T05:05:21.089Z,10.70
2019-05-11T05:07:50.666Z,10.70
2019-05-11T05:10:20.275Z,10.70
2019-05-11T05:12:51.331Z,10.70
2019-05-11T05:15:19.705Z,10.60
2019-05-11T05:17:48.164Z,10.60
2019-05-11T05:20:17.712Z,10.60
2019-05-11T05:22:46.179Z,10.60
2019-05-11T05:25:14.629Z,10.60
2019-05-11T05:27:43.225Z,10.50
2019-05-11T05:30:18.382Z,10.50
2019-05-11T05:32:46.920Z,10.50
2019-05-11T05:35:15.504Z,10.50
2019-05-11T05:37:43.961Z,10.50
2019-05-11T05:40:13.040Z,10.50
2019-05-11T05:42:41.508Z,10.50
2019-05-11T05:45:10.483Z,10.50
2019-05-11T05:47:39.006Z,10.50
2019-05-11T05:50:07.911Z,10.50
2019-05-11T05:52:36.400Z,10.60
2019-05-11T05:55:05.979Z,10.60
2019-05-11T05:57:34.429Z,10.50
2019-05-11T06:00:02.945Z,10.60
2019-05-11T06:02:31.413Z,10.60
2019-05-11T06:04:59.843Z,10.60
2019-05-11T06:07:28.308Z,10.50
2019-05-11T06:09:56.742Z,10.50
2019-05-11T06:12:31.176Z,10.40
2019-05-11T06:14:59.599Z,10.40
2019-05-11T06:17:28.033Z,10.40
2019-05-11T06:19:56.483Z,10.40
2019-05-11T06:22:24.948Z,10.40
2019-05-11T06:24:53.395Z,10.40
2019-05-11T06:27:21.844Z,10.40
2019-05-11T06:29:50.304Z,10.40
2019-05-11T06:32:18.754Z,10.40
2019-05-11T06:34:47.272Z,10.50
2019-05-11T06:37:15.715Z,10.50
2019-05-11T06:39:44.240Z,10.50
2019-05-11T06:42:12.672Z,10.50
2019-05-11T06:44:41.123Z,10.60
2019-05-11T06:47:09.572Z,10.60
2019-05-11T06:49:38.109Z,10.60
2019-05-11T06:52:06.563Z,10.50
2019-05-11T06:54:34.995Z,10.60
2019-05-11T06:57:22.791Z,10.60
2019-05-11T06:59:51.220Z,10.60
2019-05-11T07:02:19.678Z,10.60
2019-05-11T07:04:48.137Z,10.70
2019-05-11T07:07:16.646Z,10.70
2019-05-11T07:09:45.079Z,10.70
2019-05-11T07:12:13.610Z,10.70
2019-05-11T07:14:42.443Z,10.70
2019-05-11T07:17:10.927Z,10.80
2019-05-11T07:19:39.479Z,10.80
2019-05-11T07:22:08.050Z,10.80
2019-05-11T07:24:36.544Z,10.90
2019-05-11T07:27:05.068Z,10.90
2019-05-11T07:29:33.518Z,10.90
2019-05-11T07:32:09.859Z,11.00
2019-05-11T07:34:32.156Z,11.00
2019-05-11T07:37:00.673Z,10.90
2019-05-11T07:39:29.194Z,10.90
2019-05-11T07:41:58.487Z,11.00
2019-05-11T07:44:35.795Z,11.00
2019-05-11T07:46:58.708Z,11.00
2019-05-11T07:49:29.239Z,10.90
2019-05-11T07:51:58.641Z,10.90
2019-05-11T07:54:28.074Z,10.90
2019-05-11T07:56:58.368Z,10.90
2019-05-11T07:59:29.014Z,10.90
2019-05-11T08:01:58.324Z,11.00
2019-05-11T08:04:48.189Z,11.00
2019-05-11T08:07:18.117Z,10.90
2019-05-11T08:09:48.285Z,10.90
2019-05-11T08:12:19.235Z,11.00
2019-05-11T08:14:58.954Z,11.00
2019-05-11T08:17:18.676Z,11.00
2019-05-11T08:19:47.690Z,11.00
2019-05-11T08:22:20.231Z,11.00
2019-05-11T08:24:48.093Z,11.10
2019-05-11T08:27:18.695Z,11.10
2019-05-11T08:29:48.813Z,11.10
2019-05-11T08:32:18.344Z,11.10
2019-05-11T08:34:49.009Z,11.00
2019-05-11T08:37:18.934Z,11.10
2019-05-11T08:39:48.227Z,11.10
2019-05-11T08:42:18.045Z,11.20
2019-05-11T08:44:48.358Z,11.20
2019-05-11T08:47:17.747Z,11.30
2019-05-11T08:49:48.471Z,11.30
2019-05-11T08:52:18.680Z,11.30
2019-05-11T08:54:48.675Z,11.40
2019-05-11T08:57:17.961Z,11.50
2019-05-11T08:59:48.387Z,11.50
2019-05-11T09:02:18.590Z,11.60
2019-05-11T09:04:48.416Z,11.70
2019-05-11T09:07:18.432Z,11.70
2019-05-11T09:09:48.381Z,11.70
2019-05-11T09:12:18.345Z,11.80
2019-05-11T09:14:47.883Z,11.90
2019-05-11T09:17:22.272Z,11.90
2019-05-11T09:20:10.216Z,11.90
2019-05-11T09:22:38.676Z,12.10
2019-05-11T09:25:08.804Z,12.10
2019-05-11T09:27:37.767Z,12.20
2019-05-11T09:30:08.445Z,12.30
2019-05-11T09:32:38.506Z,12.40
2019-05-11T09:35:13.215Z,12.50
2019-05-11T09:37:41.664Z,12.50
2019-05-11T09:40:10.267Z,12.60
2019-05-11T09:42:39.030Z,12.60
2019-05-11T09:45:09.905Z,12.40
2019-05-11T09:47:38.747Z,12.30
2019-05-11T09:50:08.581Z,12.20
2019-05-11T09:52:38.487Z,12.20
2019-05-11T09:55:19.355Z,12.20
2019-05-11T09:57:48.657Z,12.30
2019-05-11T10:00:18.568Z,12.50
2019-05-11T10:02:48.792Z,12.60
2019-05-11T10:05:18.880Z,12.60
2019-05-11T10:07:48.499Z,12.70
2019-05-11T10:10:18.615Z,12.80
2019-05-11T10:12:48.524Z,12.80
2019-05-11T10:15:18.753Z,13.00
2019-05-11T10:17:48.327Z,13.10
2019-05-11T10:20:18.136Z,13.10
2019-05-11T10:22:48.659Z,13.10
2019-05-11T10:25:18.190Z,12.90
2019-05-11T10:27:48.922Z,13.00
2019-05-11T10:30:18.696Z,13.00
2019-05-11T10:32:48.411Z,13.10
2019-05-11T10:35:18.407Z,13.10
2019-05-11T10:37:47.826Z,13.30
2019-05-11T10:40:18.821Z,13.20
2019-05-11T10:42:48.375Z,13.20
2019-05-11T10:45:18.163Z,13.30
2019-05-11T10:47:48.744Z,13.40
2019-05-11T10:50:18.736Z,13.40
2019-05-11T10:52:48.381Z,13.30
2019-05-11T10:55:19.386Z,13.40
2019-05-11T10:57:48.731Z,13.40
2019-05-11T11:00:18.251Z,13.50
2019-05-11T11:02:47.731Z,13.50
2019-05-11T11:05:18.790Z,13.40
2019-05-11T11:07:48.433Z,13.50
2019-05-11T11:10:18.303Z,13.50
2019-05-11T11:12:49.020Z,13.60
2019-05-11T11:15:18.437Z,13.70
2019-05-11T11:17:48.617Z,13.80
2019-05-11T11:20:18.655Z,13.90
2019-05-11T11:22:48.150Z,14.10
2019-05-11T11:25:17.927Z,14.10
2019-05-11T11:27:48.726Z,14.30
2019-05-11T11:30:18.088Z,14.60
2019-05-11T11:32:48.264Z,14.70
2019-05-11T11:35:18.716Z,14.90
2019-05-11T11:37:47.911Z,14.80
2019-05-11T11:40:17.847Z,15.20
2019-05-11T11:42:47.789Z,15.50
2019-05-11T11:45:37.491Z,15.50
2019-05-11T11:48:08.465Z,15.40
2019-05-11T11:50:37.726Z,15.40
2019-05-11T11:53:08.437Z,15.20
2019-05-11T11:55:38.838Z,15.00
2019-05-11T11:58:08.276Z,14.90
2019-05-11T12:00:39.169Z,14.80
2019-05-11T12:03:08.012Z,15.00
2019-05-11T12:05:38.578Z,15.10
2019-05-11T12:08:08.302Z,15.20
2019-05-11T12:10:37.913Z,15.20
2019-05-11T12:13:08.703Z,14.90
2019-05-11T12:15:38.771Z,14.80
2019-05-11T12:18:08.266Z,14.80
2019-05-11T12:20:38.967Z,14.90
2019-05-11T12:23:08.772Z,15.00
2019-05-11T12:25:40.284Z,15.00
2019-05-11T12:28:08.009Z,15.40
2019-05-11T12:30:37.706Z,15.90
2019-05-11T12:33:13.106Z,16.00
2019-05-11T12:35:41.565Z,16.20
2019-05-11T12:38:10.026Z,15.80
2019-05-11T12:40:38.913Z,15.60
2019-05-11T12:43:08.317Z,15.50
2019-05-11T12:45:37.683Z,15.30
2019-05-11T12:48:08.814Z,15.30
2019-05-11T12:50:37.881Z,15.40
2019-05-11T12:53:08.077Z,15.60
2019-05-11T12:55:37.953Z,15.70
2019-05-11T12:58:08.615Z,15.70
2019-05-11T13:00:39.127Z,16.10
2019-05-11T13:03:08.079Z,16.50
2019-05-11T13:05:37.773Z,16.30
2019-05-11T13:08:08.063Z,16.30
2019-05-11T13:10:37.609Z,16.50
2019-05-11T13:13:08.705Z,16.90
2019-05-11T13:15:38.511Z,17.00
2019-05-11T13:18:27.889Z,17.00
2019-05-11T13:20:58.556Z,17.60
2019-05-11T13:23:45.685Z,17.90
2019-05-11T13:26:14.219Z,17.50
2019-05-11T13:28:42.657Z,17.00
2019-05-11T13:31:11.116Z,16.40
2019-05-11T13:33:39.567Z,15.90
2019-05-11T13:36:09.113Z,15.80
2019-05-11T13:38:38.836Z,15.90
2019-05-11T13:41:08.068Z,15.80
2019-05-11T13:43:38.438Z,15.90
2019-05-11T13:46:08.589Z,16.00
2019-05-11T13:48:38.671Z,16.10
2019-05-11T13:51:08.782Z,16.20
2019-05-11T13:53:37.786Z,16.00
2019-05-11T13:56:08.051Z,16.60
2019-05-11T13:58:38.169Z,17.10
2019-05-11T14:01:08.047Z,17.70
2019-05-11T14:03:37.732Z,18.50
2019-05-11T14:06:08.570Z,19.00
2019-05-11T14:08:38.423Z,19.80
2019-05-11T14:11:08.564Z,20.40
2019-05-11T14:13:38.613Z,20.90
2019-05-11T14:16:08.391Z,21.00
2019-05-11T14:18:38.679Z,20.20
2019-05-11T14:21:07.962Z,19.50
2019-05-11T14:23:38.938Z,18.90
2019-05-11T14:26:08.381Z,17.90
2019-05-11T14:28:37.603Z,17.50
2019-05-11T14:31:08.265Z,17.30
2019-05-11T14:33:38.486Z,16.90
2019-05-11T14:36:08.627Z,16.60
2019-05-11T14:38:38.080Z,16.20
2019-05-11T14:41:07.724Z,16.30
2019-05-11T14:43:38.375Z,16.30
2019-05-11T14:46:08.624Z,16.20
2019-05-11T14:48:39.197Z,16.30
2019-05-11T14:51:08.568Z,16.10
2019-05-11T14:53:37.887Z,16.20
2019-05-11T14:56:08.237Z,16.30
2019-05-11T14:58:38.627Z,16.40
2019-05-11T15:01:08.845Z,16.40
2019-05-11T15:03:43.199Z,16.40
2019-05-11T15:06:11.919Z,16.30
2019-05-11T15:08:40.371Z,16.20
2019-05-11T15:11:08.961Z,16.20
2019-05-11T15:13:38.167Z,16.20
2019-05-11T15:16:08.109Z,16.00
2019-05-11T15:18:41.421Z,15.80
2019-05-11T15:21:08.308Z,15.90
2019-05-11T15:23:37.780Z,15.90
2019-05-11T15:26:09.382Z,15.90
2019-05-11T15:28:37.964Z,15.90
2019-05-11T15:31:08.072Z,15.90
2019-05-11T15:33:38.267Z,16.00
2019-05-11T15:36:07.630Z,16.10
2019-05-11T15:38:38.010Z,16.20
2019-05-11T15:41:08.341Z,16.30
2019-05-11T15:43:38.738Z,16.40
2019-05-11T15:46:07.248Z,16.30
2019-05-11T15:48:52.876Z,16.30
2019-05-11T15:51:08.078Z,16.20
2019-05-11T15:53:44.738Z,16.10
2019-05-11T15:56:14.312Z,15.70
2019-05-11T15:58:42.774Z,15.50
2019-05-11T16:01:11.556Z,15.40
2019-05-11T16:03:40.074Z,15.40
2019-05-11T16:06:08.656Z,15.30
2019-05-11T16:08:37.635Z,15.40
2019-05-11T16:11:08.317Z,15.30
2019-05-11T16:13:37.835Z,15.20
2019-05-11T16:16:06.419Z,14.90
2019-05-11T16:18:34.876Z,14.90
2019-05-11T16:21:03.313Z,14.80
2019-05-11T16:23:31.836Z,14.60
2019-05-11T16:26:00.292Z,14.60
2019-05-11T16:28:30.842Z,14.70
2019-05-11T16:30:58.947Z,14.70
2019-05-11T16:33:27.391Z,14.90
2019-05-11T16:36:17.860Z,15.00
2019-05-11T16:38:45.359Z,15.20
2019-05-11T16:41:13.863Z,15.30
2019-05-11T16:43:42.379Z,15.40
2019-05-11T16:46:10.975Z,15.50
2019-05-11T16:48:39.525Z,15.50
2019-05-11T16:51:08.684Z,15.50
2019-05-11T16:53:39.059Z,15.50
2019-05-11T16:56:08.387Z,15.60
2019-05-11T16:58:38.119Z,15.70
2019-05-11T17:01:08.589Z,15.60
2019-05-11T17:03:38.403Z,15.60
2019-05-11T17:06:08.308Z,15.60
2019-05-11T17:08:45.870Z,15.50
2019-05-11T17:11:14.387Z,15.40
2019-05-11T17:13:42.846Z,15.30
2019-05-11T17:16:11.275Z,15.20
2019-05-11T17:18:39.744Z,15.10
2019-05-11T17:21:08.184Z,15.00
2019-05-11T17:23:38.428Z,15.00
2019-05-11T17:26:08.717Z,14.80
2019-05-11T17:28:38.466Z,14.80
2019-05-11T17:31:08.007Z,14.80
2019-05-11T17:33:38.546Z,14.70
2019-05-11T17:36:08.430Z,14.70
2019-05-11T17:38:39.039Z,14.70
2019-05-11T17:41:08.487Z,14.60
2019-05-11T17:43:38.582Z,14.70
2019-05-11T17:46:08.172Z,14.80
2019-05-11T17:48:38.806Z,14.80
2019-05-11T17:51:28.416Z,14.90
2019-05-11T17:54:04.505Z,15.00
2019-05-11T17:56:32.986Z,15.10
2019-05-11T17:59:01.936Z,15.10
2019-05-11T18:01:49.735Z,15.10
2019-05-11T18:04:19.166Z,15.10
2019-05-11T18:06:47.697Z,15.20
2019-05-11T18:09:18.211Z,15.20
2019-05-11T18:11:48.242Z,15.00
2019-05-11T18:14:17.130Z,15.00
2019-05-11T18:16:47.924Z,15.00
2019-05-11T18:19:15.799Z,14.90
2019-05-11T18:21:44.237Z,14.90
2019-05-11T18:24:12.772Z,14.80
2019-05-11T18:26:41.210Z,14.80
2019-05-11T18:29:09.756Z,14.70
2019-05-11T18:31:38.551Z,14.70
2019-05-11T18:34:09.006Z,14.70
2019-05-11T18:36:38.484Z,14.60
2019-05-11T18:39:07.961Z,14.60
2019-05-11T18:41:38.824Z,14.50
2019-05-11T18:44:08.268Z,14.50
2019-05-11T18:46:38.920Z,14.40
2019-05-11T18:49:07.187Z,14.40
2019-05-11T18:51:37.642Z,14.30
2019-05-11T18:54:25.167Z,14.20
2019-05-11T18:56:53.607Z,14.20
2019-05-11T18:59:22.072Z,14.10
2019-05-11T19:01:50.512Z,14.00
2019-05-11T19:04:19.068Z,13.90
2019-05-11T19:06:48.471Z,13.90
2019-05-11T19:09:18.072Z,13.80
2019-05-11T19:11:48.912Z,13.70
2019-05-11T19:14:17.991Z,13.70
2019-05-11T19:16:49.187Z,13.60
2019-05-11T19:19:18.249Z,13.60
2019-05-11T19:21:48.198Z,13.50
2019-05-11T19:24:18.898Z,13.40
2019-05-11T19:26:48.066Z,13.40
2019-05-11T19:29:17.891Z,13.30
2019-05-11T19:32:08.289Z,13.20
2019-05-11T19:34:36.015Z,13.20
2019-05-11T19:37:04.547Z,13.10
2019-05-11T19:39:32.984Z,13.00
2019-05-11T19:42:01.442Z,13.00
2019-05-11T19:44:29.881Z,13.00
2019-05-11T19:46:58.327Z,12.90
2019-05-11T19:49:38.433Z,12.90
2019-05-11T19:52:08.626Z,12.90
2019-05-11T19:54:38.174Z,12.80
2019-05-11T19:57:08.355Z,12.80
2019-05-11T19:59:38.701Z,12.80
2019-05-11T20:02:08.408Z,12.80
2019-05-11T20:04:38.691Z,12.70
2019-05-11T20:07:08.763Z,12.70
2019-05-11T20:09:38.712Z,12.70
2019-05-11T20:12:07.443Z,12.60
2019-05-11T20:14:37.864Z,12.60
2019-05-11T20:17:08.801Z,12.50
2019-05-11T20:19:58.090Z,12.50
2019-05-11T20:22:28.051Z,12.50
2019-05-11T20:24:58.061Z,12.40
2019-05-11T20:27:28.279Z,12.40
2019-05-11T20:30:04.372Z,12.30
2019-05-11T20:32:34.824Z,12.30
2019-05-11T20:35:03.952Z,12.20
2019-05-11T20:37:32.419Z,12.20
2019-05-11T20:40:20.247Z,12.20
2019-05-11T20:42:48.863Z,12.10
2019-05-11T20:45:18.606Z,12.10
2019-05-11T20:47:48.701Z,12.10
2019-05-11T20:50:18.547Z,12.00
2019-05-11T20:53:08.491Z,12.00
2019-05-11T20:55:37.680Z,11.90
2019-05-11T20:58:08.455Z,11.90
2019-05-11T21:00:38.308Z,11.90
2019-05-11T21:03:07.988Z,11.80
2019-05-11T21:05:36.743Z,11.70
2019-05-11T21:08:05.184Z,11.60
2019-05-11T21:10:33.655Z,11.60
2019-05-11T21:13:02.087Z,11.50
2019-05-11T21:15:30.576Z,11.50
2019-05-11T21:17:59.012Z,11.40
2019-05-11T21:20:28.680Z,11.40
2019-05-11T21:22:58.069Z,11.40
2019-05-11T21:25:28.754Z,11.30
2019-05-11T21:27:57.926Z,11.30
2019-05-11T21:30:26.628Z,11.20
2019-05-11T21:32:55.064Z,11.20
2019-05-11T21:35:23.501Z,11.20
2019-05-11T21:37:51.956Z,11.10
2019-05-11T21:40:20.539Z,11.10
2019-05-11T21:42:54.656Z,11.00
2019-05-11T21:45:23.104Z,11.00
2019-05-11T21:47:51.547Z,10.90
2019-05-11T21:50:20.001Z,10.90
2019-05-11T21:52:48.554Z,10.80
2019-05-11T21:55:17.172Z,10.80
2019-05-11T21:57:49.424Z,10.80
2019-05-11T22:00:18.877Z,10.70
2019-05-11T22:02:48.609Z,10.70
2019-05-11T22:05:23.333Z,10.70
2019-05-11T22:07:51.794Z,10.60
2019-05-11T22:10:20.572Z,10.50
2019-05-11T22:12:49.185Z,10.50
2019-05-11T22:15:17.940Z,10.50
2019-05-11T22:17:48.062Z,10.40
2019-05-11T22:20:18.351Z,10.40
2019-05-11T22:22:47.670Z,10.40
2019-05-11T22:25:18.256Z,10.30
2019-05-11T22:27:48.772Z,10.20
2019-05-11T22:30:19.488Z,10.20
2019-05-11T22:32:48.192Z,10.20
2019-05-11T22:35:18.342Z,10.10
2019-05-11T22:37:50.309Z,10.10
2019-05-11T22:40:19.083Z,10.00
2019-05-11T22:42:47.536Z,10.00
2019-05-11T22:45:18.442Z,10.00
2019-05-11T22:47:48.115Z,9.90
2019-05-11T22:50:18.662Z,9.80
2019-05-11T22:52:48.435Z,9.80
2019-05-11T22:55:18.803Z,9.80
2019-05-11T22:57:48.545Z,9.70
2019-05-11T23:00:20.295Z,9.70
2019-05-11T23:02:48.753Z,9.60
2019-05-11T23:05:17.248Z,9.60
2019-05-11T23:07:51.636Z,9.60
2019-05-11T23:10:28.002Z,9.50
2019-05-11T23:12:57.063Z,9.50
2019-05-11T23:15:25.496Z,9.40
2019-05-11T23:18:13.280Z,9.40
2019-05-11T23:20:41.890Z,9.30
2019-05-11T23:23:10.363Z,9.30
2019-05-11T23:25:38.867Z,9.20
2019-05-11T23:28:07.395Z,9.20
2019-05-11T23:30:35.848Z,9.20
2019-05-11T23:33:04.375Z,9.10
2019-05-11T23:35:32.887Z,9.10
2019-05-11T23:38:01.422Z,9.10
2019-05-11T23:40:30.008Z,9.10
2019-05-11T23:42:59.412Z,9.10
2019-05-11T23:45:28.241Z,9.10
2019-05-11T23:47:58.629Z,9.10
2019-05-11T23:50:28.218Z,9.00
2019-05-11T23:53:06.010Z,8.90
2019-05-11T23:55:29.017Z,8.90
2019-05-11T23:57:57.951Z,8.80
